Time;durP1;ratioP1;P1;durP2;ratioP2;P2;SDS_P1;SDS_P2;PMS_P1;PMS_P2;Temp;Humidity;BMP_temperature;BMP_pressure;BME280_temperature;BME280_humidity;BME280_pressure;Samples;Min_cycle;Max_cycle;Signal;HPM_P1;HPM_P2
2021/03/15 00:01:09;;;;;;;18.23;2.47;;;;;;;7.65;96.29;100041.84;4972993;28;20045;-74
2021/03/15 00:03:35;;;;;;;15.32;2.38;;;;;;;7.76;95.83;100043.63;4955671;28;20031;-73
2021/03/15 00:06:01;;;;;;;13.77;2.33;;;;;;;7.73;95.84;100036.31;4953766;28;20044;-74
2021/03/15 00:08:27;;;;;;;14.60;2.53;;;;;;;7.62;96.29;100032.63;4947765;28;20077;-74
2021/03/15 00:10:53;;;;;;;19.23;2.72;;;;;;;7.64;96.77;100026.91;4954552;28;20075;-74
2021/03/15 00:13:19;;;;;;;13.70;2.30;;;;;;;7.70;96.04;100026.31;4956748;28;20377;-74
2021/03/15 00:15:47;;;;;;;10.35;2.33;;;;;;;7.77;95.21;100028.34;4970510;28;20526;-74
2021/03/15 00:18:12;;;;;;;10.93;2.30;;;;;;;7.72;95.40;100016.00;4955511;28;20062;-74
2021/03/15 00:20:38;;;;;;;16.10;2.38;;;;;;;7.75;95.11;100015.28;4955106;29;20089;-73
2021/03/15 00:23:03;;;;;;;20.50;2.78;;;;;;;7.73;95.18;100025.59;4950648;28;20027;-74
2021/03/15 00:25:29;;;;;;;18.20;3.05;;;;;;;7.63;94.75;100012.72;4969661;28;20492;-74
2021/03/15 00:27:55;;;;;;;24.05;3.33;;;;;;;7.67;94.70;100023.53;4952414;28;20492;-73
2021/03/15 00:30:20;;;;;;;17.77;2.47;;;;;;;7.69;95.23;100024.72;4957532;28;20041;-74
2021/03/15 00:32:47;;;;;;;20.80;3.42;;;;;;;7.54;96.31;100033.59;4956197;28;20031;-74
2021/03/15 00:35:14;;;;;;;13.18;2.63;;;;;;;7.69;96.43;100035.44;4959124;28;20042;-73
2021/03/15 00:37:41;;;;;;;14.85;3.50;;;;;;;7.60;96.64;100024.16;4959306;28;20125;-74
2021/03/15 00:40:09;;;;;;;13.80;3.30;;;;;;;7.42;96.56;100030.22;4954387;28;20487;-74
2021/03/15 00:42:36;;;;;;;12.98;3.30;;;;;;;7.40;97.67;100027.91;4953282;28;20039;-74
2021/03/15 00:45:06;;;;;;;12.77;2.47;;;;;;;7.30;98.75;100042.63;4956571;28;20041;-74
2021/03/15 00:47:31;;;;;;;10.18;1.60;;;;;;;6.91;97.43;100038.22;4958555;28;20034;-74
2021/03/15 00:49:56;;;;;;;6.43;1.25;;;;;;;6.94;96.93;100026.84;4985129;28;20029;-75
2021/03/15 00:52:22;;;;;;;11.23;2.15;;;;;;;6.73;97.30;100018.28;4961848;28;20035;-74
2021/03/15 00:54:47;;;;;;;10.60;2.05;;;;;;;6.60;99.37;100024.81;4953651;28;20078;-74
2021/03/15 00:57:24;;;;;;;8.18;2.13;;;;;;;6.53;100.00;100018.50;4953295;28;20035;-75
2021/03/15 00:59:50;;;;;;;11.07;2.10;;;;;;;6.71;100.00;100014.41;4963570;28;20035;-74
2021/03/15 01:02:16;;;;;;;16.27;2.65;;;;;;;6.76;100.00;100012.25;4967464;28;20038;-74
2021/03/15 01:04:42;;;;;;;13.20;2.65;;;;;;;6.74;99.73;100014.47;4960913;28;20559;-74
2021/03/15 01:07:18;;;;;;;9.73;2.03;;;;;;;6.55;100.00;100011.72;4954262;28;20086;-75
2021/03/15 01:09:45;;;;;;;12.80;2.60;;;;;;;6.51;100.00;100013.50;4950419;28;20035;-74
2021/03/15 01:12:43;;;;;;;15.02;2.85;;;;;;;6.37;100.00;100008.56;4943810;28;20031;-74
2021/03/15 01:15:10;;;;;;;17.92;3.53;;;;;;;6.59;100.00;100006.44;4955191;29;20395;-74
2021/03/15 01:17:40;;;;;;;12.70;3.30;;;;;;;6.69;100.00;100005.94;4952842;29;20122;-74
2021/03/15 01:20:08;;;;;;;16.75;3.72;;;;;;;6.62;100.00;100001.19;4955044;28;20094;-75
2021/03/15 01:22:34;;;;;;;15.07;3.38;;;;;;;6.71;100.00;99993.78;4953369;28;20046;-75
2021/03/15 01:25:00;;;;;;;14.07;3.00;;;;;;;6.75;100.00;99991.19;4961255;28;20054;-75
2021/03/15 01:27:26;;;;;;;14.30;3.70;;;;;;;6.91;100.00;99986.63;4952979;28;20539;-74
2021/03/15 01:29:51;;;;;;;13.73;3.08;;;;;;;6.84;100.00;99986.44;4952253;28;20412;-74
2021/03/15 01:32:17;;;;;;;16.98;3.45;;;;;;;6.81;100.00;99993.28;4955038;28;20035;-74
2021/03/15 01:34:42;;;;;;;12.40;3.42;;;;;;;6.97;100.00;99996.69;4954539;28;20385;-74
2021/03/15 01:37:08;;;;;;;25.50;3.25;;;;;;;6.73;100.00;99986.19;4950891;28;20424;-74
2021/03/15 01:39:33;;;;;;;15.48;3.72;;;;;;;6.86;100.00;99978.84;4950895;28;20578;-74
2021/03/15 01:42:00;;;;;;;13.40;3.40;;;;;;;6.81;100.00;99989.81;4954691;28;20054;-75
2021/03/15 01:44:25;;;;;;;11.25;2.83;;;;;;;6.87;100.00;99973.13;4955314;28;20395;-74
2021/03/15 01:46:51;;;;;;;19.88;3.45;;;;;;;6.84;100.00;99973.84;4952652;28;20027;-74
2021/03/15 01:49:17;;;;;;;9.52;2.85;;;;;;;6.77;100.00;99975.56;4973756;28;20035;-74
2021/03/15 01:51:43;;;;;;;12.15;2.78;;;;;;;6.69;100.00;99963.94;4953443;28;20035;-74
2021/03/15 01:54:09;;;;;;;9.98;2.63;;;;;;;6.65;100.00;99963.06;4954323;28;20158;-74
2021/03/15 01:56:36;;;;;;;8.18;2.60;;;;;;;6.76;100.00;99961.41;4953926;28;20137;-75
2021/03/15 01:59:03;;;;;;;15.52;3.47;;;;;;;6.78;100.00;99961.06;4953029;28;20507;-74
2021/03/15 02:01:28;;;;;;;21.15;3.53;;;;;;;6.64;100.00;99953.47;4952143;28;20543;-74
2021/03/15 02:03:54;;;;;;;13.82;3.65;;;;;;;6.66;100.00;99953.16;4954105;28;20110;-74
2021/03/15 02:06:19;;;;;;;13.15;3.60;;;;;;;6.52;100.00;99960.81;4947300;28;20041;-74
2021/03/15 02:08:45;;;;;;;16.00;3.42;;;;;;;6.74;100.00;99950.28;4946737;28;20043;-74
2021/03/15 02:11:31;;;;;;;15.63;3.42;;;;;;;6.74;100.00;99960.97;4960414;28;20057;-74
2021/03/15 02:14:15;;;;;;;18.10;4.18;;;;;;;6.76;100.00;99961.41;4953817;29;20031;-74
2021/03/15 02:16:56;;;;;;;14.35;3.50;;;;;;;6.60;100.00;99957.19;4951279;28;20046;-74
2021/03/15 02:19:43;;;;;;;18.25;3.85;;;;;;;6.73;100.00;99953.31;4953387;28;20035;-74
2021/03/15 02:22:36;;;;;;;14.02;3.97;;;;;;;6.76;100.00;99948.03;4956299;28;20031;-74
2021/03/15 02:25:21;;;;;;;13.73;4.25;;;;;;;6.82;100.00;99941.31;4959280;28;20035;-74
2021/03/15 02:28:29;;;;;;;12.13;4.15;;;;;;;6.87;100.00;99940.28;4952983;28;20062;-74
2021/03/15 02:31:33;;;;;;;17.85;3.88;;;;;;;6.74;100.00;99939.56;4949286;28;20097;-74
2021/03/15 02:34:36;;;;;;;20.55;4.95;;;;;;;6.72;100.00;99933.78;4944587;28;20110;-74
2021/03/15 02:37:04;;;;;;;19.98;4.78;;;;;;;6.70;100.00;99922.66;4957770;28;20035;-74
2021/03/15 02:39:38;;;;;;;17.08;4.72;;;;;;;6.79;100.00;99931.31;4946059;28;20039;-74
2021/03/15 02:42:09;;;;;;;14.27;4.95;;;;;;;6.93;100.00;99933.53;4946128;28;20039;-75
2021/03/15 02:44:36;;;;;;;19.17;4.80;;;;;;;6.95;100.00;99932.03;4945346;28;20063;-74
2021/03/15 02:47:09;;;;;;;20.17;4.95;;;;;;;6.95;100.00;99931.28;4950586;28;20038;-75
2021/03/15 02:49:36;;;;;;;21.80;5.47;;;;;;;6.86;100.00;99930.66;4952443;28;20035;-74
2021/03/15 02:52:03;;;;;;;20.67;5.30;;;;;;;6.86;100.00;99931.47;4952658;28;20491;-74
2021/03/15 02:54:31;;;;;;;14.27;4.60;;;;;;;6.91;100.00;99928.50;4952848;28;20514;-74
2021/03/15 02:56:58;;;;;;;19.02;5.15;;;;;;;6.92;100.00;99929.28;4949464;28;20121;-74
2021/03/15 02:59:25;;;;;;;20.33;5.63;;;;;;;6.90;100.00;99926.19;4949256;28;20035;-74
2021/03/15 03:01:54;;;;;;;21.55;5.85;;;;;;;6.89;100.00;99917.38;4951840;28;20027;-74
2021/03/15 03:04:21;;;;;;;17.00;5.53;;;;;;;6.87;100.00;99927.66;4951375;29;20481;-74
2021/03/15 03:06:51;;;;;;;16.85;5.03;;;;;;;6.83;100.00;99928.72;4942186;28;20042;-74
2021/03/15 03:09:17;;;;;;;15.05;5.28;;;;;;;6.88;100.00;99918.50;4950153;28;20495;-74
2021/03/15 03:11:45;;;;;;;17.42;5.68;;;;;;;6.83;100.00;99913.41;4948342;28;20035;-74
2021/03/15 03:14:12;;;;;;;24.25;5.90;;;;;;;6.79;100.00;99909.91;4950490;28;20068;-74
2021/03/15 03:16:40;;;;;;;13.70;5.30;;;;;;;6.94;100.00;99913.66;4952594;28;20507;-74
2021/03/15 03:19:09;;;;;;;21.15;6.05;;;;;;;6.99;100.00;99914.16;4952866;28;20062;-74
2021/03/15 03:21:37;;;;;;;20.67;6.82;;;;;;;7.00;100.00;99905.03;4942985;28;20027;-74
2021/03/15 03:24:04;;;;;;;25.15;6.65;;;;;;;6.93;100.00;99904.09;4976004;28;20038;-74
2021/03/15 03:26:30;;;;;;;25.88;7.70;;;;;;;6.95;100.00;99905.28;4950909;28;20028;-75
2021/03/15 03:28:58;;;;;;;26.88;7.00;;;;;;;6.80;100.00;99903.41;4952625;28;20597;-74
2021/03/15 03:31:31;;;;;;;19.73;6.72;;;;;;;6.80;100.00;99906.09;4955390;28;20039;-75
2021/03/15 03:33:59;;;;;;;17.13;6.72;;;;;;;6.93;100.00;99904.09;4956546;28;20123;-75
2021/03/15 03:36:24;;;;;;;20.17;6.80;;;;;;;6.94;100.00;99906.41;4952419;28;20038;-74
2021/03/15 03:38:50;;;;;;;18.17;6.25;;;;;;;6.86;100.00;99904.69;4954615;28;20035;-74
2021/03/15 03:41:16;;;;;;;17.67;7.15;;;;;;;6.86;100.00;99903.91;4961187;28;20058;-74
2021/03/15 03:43:41;;;;;;;22.45;7.22;;;;;;;6.89;100.00;99908.59;4950503;28;20037;-73
2021/03/15 03:46:08;;;;;;;19.65;6.97;;;;;;;6.89;100.00;99913.94;4961459;28;20439;-76
2021/03/15 03:48:35;;;;;;;22.48;7.60;;;;;;;6.95;100.00;99893.81;4961423;28;20047;-75
2021/03/15 03:51:02;;;;;;;19.58;7.18;;;;;;;6.73;100.00;99903.25;4935064;28;20480;-75
2021/03/15 03:53:36;;;;;;;19.58;7.28;;;;;;;6.83;100.00;99899.28;4954743;28;20031;-75
2021/03/15 03:56:08;;;;;;;22.77;6.85;;;;;;;6.83;100.00;99908.06;4950704;28;20039;-75
2021/03/15 03:58:48;;;;;;;17.23;7.70;;;;;;;6.69;100.00;99909.63;4957036;28;20098;-75
2021/03/15 04:01:15;;;;;;;17.38;7.47;;;;;;;6.72;100.00;99903.59;4951958;28;20050;-75
2021/03/15 04:03:46;;;;;;;17.73;6.85;;;;;;;6.85;100.00;99895.09;4954290;28;20083;-74
2021/03/15 04:06:13;;;;;;;18.98;7.25;;;;;;;6.92;100.00;99889.94;4972156;28;20031;-74
2021/03/15 04:08:50;;;;;;;23.50;7.68;;;;;;;6.96;100.00;99896.13;4956546;28;20065;-75
2021/03/15 04:11:19;;;;;;;19.35;6.90;;;;;;;6.90;100.00;99899.41;4957502;28;20039;-74
2021/03/15 04:13:48;;;;;;;19.80;7.15;;;;;;;6.98;100.00;99898.47;4959917;28;20086;-75
2021/03/15 04:16:15;;;;;;;21.20;7.35;;;;;;;6.80;100.00;99892.72;4951927;28;20045;-76
2021/03/15 04:18:46;;;;;;;16.42;6.50;;;;;;;6.87;100.00;99898.22;4964061;28;20716;-75
2021/03/15 04:21:14;;;;;;;23.42;7.53;;;;;;;6.84;100.00;99890.88;4956474;28;20516;-75
2021/03/15 04:23:42;;;;;;;16.77;7.18;;;;;;;6.80;100.00;99881.22;4956705;28;20028;-74
2021/03/15 04:26:08;;;;;;;19.65;6.43;;;;;;;6.88;100.00;99891.75;4954593;28;20068;-74
2021/03/15 04:28:36;;;;;;;22.08;7.07;;;;;;;6.70;100.00;99889.78;4967416;28;20034;-74
2021/03/15 04:31:03;;;;;;;18.33;6.38;;;;;;;6.75;100.00;99890.31;4951640;28;20126;-75
2021/03/15 04:33:29;;;;;;;20.67;6.47;;;;;;;6.74;100.00;99885.28;4976206;28;20300;-75
2021/03/15 04:35:54;;;;;;;15.70;5.80;;;;;;;6.58;100.00;99893.31;4949418;28;20027;-75
2021/03/15 04:38:22;;;;;;;14.75;6.00;;;;;;;6.72;100.00;99888.31;4948213;28;20042;-75
2021/03/15 04:40:49;;;;;;;19.38;6.32;;;;;;;6.72;100.00;99885.63;4948635;28;20059;-75
2021/03/15 04:43:16;;;;;;;15.63;5.63;;;;;;;6.80;100.00;99889.25;4953053;28;20039;-74
2021/03/15 04:45:43;;;;;;;20.45;6.60;;;;;;;6.83;100.00;99888.56;4950877;28;20373;-75
2021/03/15 04:48:17;;;;;;;13.77;5.35;;;;;;;6.76;100.00;99891.84;4942907;28;20130;-74
2021/03/15 04:50:44;;;;;;;15.77;5.65;;;;;;;6.86;100.00;99895.88;4945951;28;20035;-75
2021/03/15 04:53:11;;;;;;;11.45;5.38;;;;;;;6.83;100.00;99900.03;4949614;28;20103;-75
2021/03/15 04:55:40;;;;;;;15.48;5.55;;;;;;;6.80;100.00;99907.97;4952326;28;20082;-75
2021/03/15 04:58:07;;;;;;;19.88;5.60;;;;;;;6.87;100.00;99902.81;4950283;28;20445;-74
2021/03/15 05:00:35;;;;;;;11.63;5.30;;;;;;;6.81;100.00;99901.53;4948942;28;20031;-75
2021/03/15 05:03:05;;;;;;;10.20;4.53;;;;;;;6.70;100.00;99903.94;4940827;28;20584;-75
2021/03/15 05:05:32;;;;;;;12.57;4.50;;;;;;;6.74;100.00;99902.13;4954512;28;20035;-75
2021/03/15 05:08:02;;;;;;;13.43;4.57;;;;;;;6.69;100.00;99899.72;4941283;28;20065;-73
2021/03/15 05:10:28;;;;;;;13.90;4.47;;;;;;;6.69;100.00;99885.56;4952294;28;20885;-75
2021/03/15 05:12:54;;;;;;;10.65;4.53;;;;;;;6.89;100.00;99911.25;4949864;28;20027;-74
2021/03/15 05:15:19;;;;;;;10.10;4.28;;;;;;;6.80;100.00;99900.72;4955912;28;20054;-76
2021/03/15 05:17:47;;;;;;;12.30;4.57;;;;;;;6.86;100.00;99914.63;4946992;28;20046;-75
2021/03/15 05:20:15;;;;;;;12.50;4.65;;;;;;;6.82;100.00;99900.38;4954342;28;20043;-73
2021/03/15 05:22:42;;;;;;;10.38;4.68;;;;;;;6.83;100.00;99896.59;4954294;28;20047;-75
2021/03/15 05:25:10;;;;;;;11.13;4.63;;;;;;;6.72;100.00;99885.63;4952958;28;20590;-75
2021/03/15 05:27:36;;;;;;;7.32;3.83;;;;;;;6.73;100.00;99883.75;4961178;28;20042;-75
2021/03/15 05:30:05;;;;;;;12.13;3.78;;;;;;;6.76;100.00;99883.81;4969198;28;20062;-75
2021/03/15 05:32:33;;;;;;;9.77;3.58;;;;;;;6.86;100.00;99891.31;4957972;28;20078;-74
2021/03/15 05:35:00;;;;;;;10.07;3.42;;;;;;;6.76;100.00;99881.16;4953713;28;20079;-76
2021/03/15 05:37:27;;;;;;;8.27;3.70;;;;;;;6.83;100.00;99878.63;4952582;28;20023;-75
2021/03/15 05:40:13;;;;;;;11.50;3.50;;;;;;;6.76;100.00;99872.34;4952195;28;20599;-75
2021/03/15 05:43:10;;;;;;;6.43;3.38;;;;;;;6.63;100.00;99862.88;4912400;29;20044;-74
2021/03/15 05:45:49;;;;;;;4.50;2.88;;;;;;;6.58;100.00;99873.84;4914384;29;20547;-74
2021/03/15 05:48:54;;;;;;;6.07;3.35;;;;;;;6.84;100.00;99866.03;4912573;29;20667;-75
2021/03/15 05:51:35;;;;;;;8.38;3.08;;;;;;;6.73;100.00;99873.84;4915628;29;20075;-74
2021/03/15 05:54:09;;;;;;;9.85;3.35;;;;;;;6.70;100.00;99868.38;4975849;23;20046;-75
2021/03/15 05:57:26;;;;;;;7.85;3.55;;;;;;;6.60;100.00;99871.59;4967810;28;20459;-76
2021/03/15 05:59:57;;;;;;;6.70;3.13;;;;;;;6.68;100.00;99871.41;4904848;29;20115;-75
2021/03/15 06:02:22;;;;;;;;;;;;;;;6.80;100.00;99871.31;4959596;28;20042;-77
2021/03/15 06:04:54;;;;;;;7.13;3.58;;;;;;;6.63;100.00;99874.34;4976595;28;19914;-75
2021/03/15 06:07:23;;;;;;;7.90;3.35;;;;;;;6.60;100.00;99867.00;4961836;28;20555;-75
2021/03/15 06:10:09;;;;;;;6.72;3.60;;;;;;;6.78;100.00;99873.56;4969017;28;20554;-76
2021/03/15 06:12:52;;;;;;;9.25;3.15;;;;;;;6.85;100.00;99870.28;4969512;28;20045;-76
2021/03/15 06:15:42;;;;;;;8.80;3.63;;;;;;;6.92;100.00;99881.13;4978526;28;20034;-77
2021/03/15 06:18:29;;;;;;;7.57;3.30;;;;;;;6.74;100.00;99874.59;4957985;28;20538;-76
2021/03/15 06:20:55;;;;;;;12.30;4.18;;;;;;;6.57;100.00;99875.75;4925711;29;20054;-76
2021/03/15 06:23:21;;;;;;;6.95;3.70;;;;;;;6.66;100.00;99873.66;4930465;29;20047;-77
2021/03/15 06:25:48;;;;;;;13.15;4.13;;;;;;;6.74;100.00;99875.38;4908791;29;20382;-77
2021/03/15 06:28:16;;;;;;;9.70;3.70;;;;;;;6.73;100.00;99875.72;4929073;29;20048;-76
2021/03/15 06:30:42;;;;;;;9.77;4.13;;;;;;;6.76;100.00;99877.69;4912845;29;20540;-77
2021/03/15 06:33:08;;;;;;;9.10;4.05;;;;;;;6.71;100.00;99865.38;4927897;29;20047;-76
2021/03/15 06:35:43;;;;;;;8.88;3.95;;;;;;;6.76;100.00;99862.41;4930518;29;20047;-77
2021/03/15 06:38:09;;;;;;;9.45;3.67;;;;;;;6.91;100.00;99868.88;4929682;29;20052;-77
2021/03/15 06:40:39;;;;;;;15.32;3.92;;;;;;;6.99;99.86;99859.84;4930802;29;20535;-76
2021/03/15 06:43:11;;;;;;;10.00;3.40;;;;;;;7.01;100.00;99857.59;4912919;29;20043;-76
2021/03/15 06:45:36;;;;;;;10.02;4.35;;;;;;;7.10;99.50;99853.59;4908324;29;20851;-77
2021/03/15 06:48:03;;;;;;;7.57;3.65;;;;;;;7.05;99.87;99848.53;4927645;29;20074;-77
2021/03/15 06:50:28;;;;;;;12.30;3.60;;;;;;;7.10;99.28;99850.91;4924637;29;20035;-75
2021/03/15 06:52:59;;;;;;;16.20;2.97;;;;;;;7.00;98.69;99845.34;4916812;29;20043;-75
2021/03/15 06:55:45;;;;;;;11.40;3.05;;;;;;;6.87;99.99;99842.00;4935324;29;20034;-77
2021/03/15 06:58:31;;;;;;;11.38;3.10;;;;;;;7.05;100.00;99839.72;4950438;28;20090;-76
2021/03/15 07:01:09;;;;;;;12.00;3.53;;;;;;;7.04;99.65;99847.00;4964605;28;20031;-76
2021/03/15 07:03:36;;;;;;;15.43;3.45;;;;;;;7.09;100.00;99838.69;4966663;28;20030;-75
2021/03/15 07:06:03;;;;;;;15.77;3.40;;;;;;;7.06;100.00;99839.38;4964163;28;20381;-75
2021/03/15 07:08:28;;;;;;;12.35;3.25;;;;;;;7.07;99.56;99838.25;4963334;28;20519;-75
2021/03/15 07:10:57;;;;;;;11.85;2.92;;;;;;;7.20;99.66;99836.97;4972369;28;20130;-76
2021/03/15 07:13:24;;;;;;;11.07;3.55;;;;;;;7.27;99.65;99839.03;4970454;28;20121;-76
2021/03/15 07:15:52;;;;;;;9.57;2.97;;;;;;;7.19;100.00;99832.00;4968743;28;20039;-77
2021/03/15 07:18:17;;;;;;;8.13;3.03;;;;;;;7.19;100.00;99830.09;4971471;28;20506;-76
2021/03/15 07:20:44;;;;;;;14.32;3.75;;;;;;;7.16;100.00;99830.03;4964601;28;20046;-76
2021/03/15 07:23:10;;;;;;;9.43;3.40;;;;;;;7.25;100.00;99836.72;4966216;28;20520;-77
2021/03/15 07:25:35;;;;;;;8.85;3.35;;;;;;;7.17;100.00;99831.56;4985081;28;20118;-77
2021/03/15 07:28:01;;;;;;;14.20;3.50;;;;;;;7.11;100.00;99838.31;4970227;28;20033;-77
2021/03/15 07:30:28;;;;;;;10.43;3.53;;;;;;;7.06;100.00;99836.72;4958403;28;20106;-77
2021/03/15 07:33:14;;;;;;;13.93;3.58;;;;;;;7.13;100.00;99842.19;4964525;28;20031;-77
2021/03/15 07:35:40;;;;;;;6.55;2.92;;;;;;;6.93;100.00;99839.88;4968968;28;20418;-77
2021/03/15 07:38:06;;;;;;;13.82;3.20;;;;;;;7.07;100.00;99835.56;4964815;28;20027;-77
2021/03/15 07:40:40;;;;;;;11.02;3.72;;;;;;;7.20;100.00;99839.66;4964528;28;20435;-76
2021/03/15 07:43:08;;;;;;;12.68;3.35;;;;;;;7.10;100.00;99832.19;4984449;28;20550;-76
2021/03/15 07:45:38;;;;;;;12.30;3.45;;;;;;;7.13;100.00;99836.84;4966141;28;20070;-77
2021/03/15 07:48:08;;;;;;;11.93;3.40;;;;;;;7.21;100.00;99835.88;4967293;28;20546;-76
2021/03/15 07:50:35;;;;;;;12.38;3.47;;;;;;;7.21;100.00;99837.75;4965795;28;20049;-76
2021/03/15 07:53:02;;;;;;;9.23;3.20;;;;;;;7.21;100.00;99846.59;4983221;28;20396;-77
2021/03/15 07:55:40;;;;;;;11.43;3.60;;;;;;;7.21;100.00;99830.50;4965027;28;20070;-77
2021/03/15 07:58:37;;;;;;;9.15;3.63;;;;;;;7.23;100.00;99825.59;4982402;28;20414;-77
2021/03/15 08:01:04;;;;;;;10.82;3.63;;;;;;;7.16;100.00;99822.75;4954312;28;20054;-77
2021/03/15 08:03:30;;;;;;;7.60;3.08;;;;;;;7.06;100.00;99842.06;4961735;28;20467;-77
2021/03/15 08:05:58;;;;;;;9.07;3.35;;;;;;;7.10;100.00;99834.09;4961747;28;20050;-77
2021/03/15 08:08:24;;;;;;;9.05;3.42;;;;;;;7.06;100.00;99834.03;4958904;28;20039;-77
2021/03/15 08:10:50;;;;;;;6.57;3.55;;;;;;;6.98;100.00;99840.38;4969355;28;20108;-77
2021/03/15 08:13:21;;;;;;;9.90;3.50;;;;;;;7.02;100.00;99838.53;4985949;28;20077;-77
2021/03/15 08:15:49;;;;;;;6.93;2.95;;;;;;;7.01;100.00;99834.28;4966568;28;20040;-77
2021/03/15 08:18:20;;;;;;;11.23;3.40;;;;;;;7.11;100.00;99836.44;4968140;28;20031;-77
2021/03/15 08:20:48;;;;;;;10.40;3.35;;;;;;;7.10;100.00;99840.22;4976370;28;20071;-77
2021/03/15 08:23:16;;;;;;;11.85;3.80;;;;;;;7.16;100.00;99833.47;4987555;28;20046;-78
2021/03/15 08:25:44;;;;;;;9.35;3.30;;;;;;;7.10;100.00;99829.50;4978403;28;20058;-77
2021/03/15 08:28:12;;;;;;;12.75;3.72;;;;;;;7.16;100.00;99838.81;4976477;28;20042;-77
2021/03/15 08:30:43;;;;;;;10.70;3.80;;;;;;;7.24;100.00;99845.88;4986752;28;20027;-77
2021/03/15 08:33:12;;;;;;;8.85;3.40;;;;;;;7.34;100.00;99846.44;4969848;28;20036;-76
2021/03/15 08:35:37;;;;;;;10.00;3.42;;;;;;;7.23;100.00;99844.31;4975905;28;20432;-77
2021/03/15 08:38:05;;;;;;;15.80;3.97;;;;;;;7.26;100.00;99835.56;4978858;28;20034;-77
2021/03/15 08:40:45;;;;;;;14.45;4.05;;;;;;;7.41;100.00;99842.00;4971054;28;20061;-77
2021/03/15 08:43:17;;;;;;;15.07;4.00;;;;;;;7.49;100.00;99846.34;4972443;28;20037;-79
2021/03/15 08:45:46;;;;;;;;;;;;;;;7.47;100.00;99842.50;4967949;28;20030;-77
2021/03/15 08:48:12;;;;;;;10.65;3.63;;;;;;;7.50;100.00;99831.84;4965884;28;19921;-78
2021/03/15 08:50:37;;;;;;;16.95;3.70;;;;;;;7.55;100.00;99836.16;4966974;28;20495;-78
2021/03/15 08:53:03;;;;;;;14.85;4.28;;;;;;;7.68;100.00;99826.81;4968984;28;20611;-77
2021/03/15 08:55:47;;;;;;;15.60;4.72;;;;;;;7.75;100.00;99827.72;4967912;28;20035;-79
2021/03/15 08:58:35;;;;;;;11.57;4.13;;;;;;;7.93;100.00;99836.06;4966632;28;20494;-77
2021/03/15 09:01:01;;;;;;;11.50;4.15;;;;;;;7.96;100.00;99832.66;4969583;28;20050;-78
2021/03/15 09:03:49;;;;;;;14.02;4.80;;;;;;;8.10;100.00;99827.53;4966996;28;20031;-79
2021/03/15 09:06:38;;;;;;;17.88;4.85;;;;;;;8.28;100.00;99831.31;4971634;28;20398;-78
2021/03/15 09:09:11;;;;;;;20.50;4.40;;;;;;;8.30;100.00;99831.75;4976380;28;20027;-78
2021/03/15 09:11:36;;;;;;;14.48;4.40;;;;;;;8.28;100.00;99827.88;4970081;28;20118;-78
2021/03/15 09:14:26;;;;;;;13.38;4.97;;;;;;;8.23;100.00;99835.03;4963848;28;20544;-78
2021/03/15 09:16:54;;;;;;;11.98;4.00;;;;;;;8.24;100.00;99833.16;4973014;28;20387;-78
2021/03/15 09:19:23;;;;;;;14.18;4.35;;;;;;;8.12;100.00;99828.75;4968736;28;20117;-78
2021/03/15 09:21:59;;;;;;;7.60;3.58;;;;;;;8.18;100.00;99831.91;4967727;28;20031;-78
2021/03/15 09:24:39;;;;;;;11.45;3.60;;;;;;;8.23;100.00;99836.94;4966151;28;20495;-79
2021/03/15 09:27:28;;;;;;;12.25;3.65;;;;;;;8.05;100.00;99830.53;4971015;28;20069;-78
2021/03/15 09:30:05;;;;;;;16.38;3.58;;;;;;;7.84;100.00;99830.19;4972263;28;20042;-79
2021/03/15 09:32:31;;;;;;;10.27;3.50;;;;;;;7.98;100.00;99830.41;4969360;28;20066;-79
2021/03/15 09:34:59;;;;;;;15.25;4.35;;;;;;;8.04;100.00;99824.41;4980883;28;20367;-78
2021/03/15 09:37:26;;;;;;;8.32;3.75;;;;;;;8.30;100.00;99823.69;4969510;28;20055;-78
2021/03/15 09:39:54;;;;;;;11.20;3.75;;;;;;;8.48;100.00;99830.09;4968501;28;20031;-80
2021/03/15 09:42:20;;;;;;;11.48;3.50;;;;;;;8.59;100.00;99823.00;4966959;28;20038;-79
2021/03/15 09:44:46;;;;;;;11.70;3.13;;;;;;;8.92;100.00;99831.09;4967853;28;20130;-79
2021/03/15 09:47:14;;;;;;;12.63;3.40;;;;;;;9.59;100.00;99818.47;4981692;28;20080;-79
2021/03/15 09:49:43;;;;;;;8.88;2.58;;;;;;;10.13;100.00;99812.47;4964365;28;20031;-79
2021/03/15 09:52:22;;;;;;;14.88;3.20;;;;;;;10.07;99.79;99808.56;4979555;28;20031;-79
2021/03/15 09:54:57;;;;;;;14.38;3.33;;;;;;;10.15;98.70;99801.34;4966148;28;20035;-79
2021/03/15 09:57:25;;;;;;;7.10;2.13;;;;;;;10.11;97.01;99798.63;4972667;28;20031;-79
2021/03/15 10:00:23;;;;;;;7.22;1.95;;;;;;;10.12;96.50;99808.25;4952266;28;20043;-78
2021/03/15 10:03:21;;;;;;;8.85;2.28;;;;;;;9.97;96.17;99814.59;4961846;28;20043;-78
2021/03/15 10:06:05;;;;;;;12.80;2.92;;;;;;;9.76;96.32;99809.81;4970093;28;20454;-78
2021/03/15 10:09:04;;;;;;;11.40;2.72;;;;;;;9.59;97.18;99820.38;4965591;28;20086;-77
2021/03/15 10:12:00;;;;;;;11.10;2.47;;;;;;;9.55;97.46;99820.34;4966800;28;20038;-79
2021/03/15 10:14:32;;;;;;;15.82;2.85;;;;;;;9.29;98.68;99822.38;4964450;28;20073;-77
2021/03/15 10:17:27;;;;;;;7.40;2.35;;;;;;;9.15;99.39;99814.13;4953130;28;20495;-78
2021/03/15 10:20:27;;;;;;;11.82;2.38;;;;;;;9.08;100.00;99823.66;4955954;28;20047;-78
2021/03/15 10:22:55;;;;;;;11.43;2.72;;;;;;;9.16;100.00;99816.44;4967557;28;20105;-76
2021/03/15 10:25:23;;;;;;;20.73;3.17;;;;;;;9.15;100.00;99819.50;4969378;28;20043;-77
2021/03/15 10:27:57;;;;;;;21.50;2.80;;;;;;;9.16;100.00;99812.97;4979908;28;20050;-77
2021/03/15 10:30:27;;;;;;;9.20;2.80;;;;;;;9.30;100.00;99818.53;4964862;28;20101;-78
2021/03/15 10:32:53;;;;;;;14.00;2.83;;;;;;;9.43;100.00;99814.44;4980016;28;20030;-77
2021/03/15 10:35:19;;;;;;;17.90;2.72;;;;;;;9.48;100.00;99822.19;4980350;28;20023;-78
2021/03/15 10:38:03;;;;;;;14.75;2.95;;;;;;;9.39;100.00;99821.72;4962304;28;20043;-78
2021/03/15 10:40:40;;;;;;;10.93;2.58;;;;;;;9.30;100.00;99818.53;4977274;28;20125;-78
2021/03/15 10:43:25;;;;;;;18.90;2.83;;;;;;;9.12;100.00;99810.25;4963111;28;20396;-77
2021/03/15 10:46:11;;;;;;;15.95;2.70;;;;;;;9.30;100.00;99823.91;4970048;28;20450;-77
2021/03/15 10:48:37;;;;;;;12.40;2.05;;;;;;;9.50;100.00;99815.31;4967280;28;20058;-77
2021/03/15 10:51:04;;;;;;;19.10;2.47;;;;;;;10.02;100.00;99808.91;4981839;28;20819;-79
2021/03/15 10:53:52;;;;;;;22.98;2.70;;;;;;;10.55;99.22;99799.31;4971342;28;20031;-77
2021/03/15 10:56:34;;;;;;;14.70;1.95;;;;;;;11.01;95.06;99794.19;4965031;28;20030;-76
2021/03/15 10:59:06;;;;;;;18.70;2.50;;;;;;;11.29;92.48;99797.00;4964472;28;20070;-77
2021/03/15 11:01:41;;;;;;;21.33;2.60;;;;;;;11.13;90.62;99793.09;4986043;28;20086;-77
2021/03/15 11:04:40;;;;;;;15.05;2.10;;;;;;;11.12;90.12;99796.94;4981958;28;20482;-77
2021/03/15 11:07:36;;;;;;;18.25;2.70;;;;;;;11.33;90.73;99786.22;4977915;28;20036;-76
2021/03/15 11:10:08;;;;;;;16.98;2.80;;;;;;;11.20;90.58;99796.59;4968334;28;20337;-76
2021/03/15 11:13:00;;;;;;;15.68;2.15;;;;;;;11.00;89.80;99800.72;4970633;28;20042;-77
2021/03/15 11:15:39;;;;;;;11.95;2.28;;;;;;;10.65;92.10;99814.78;4987318;28;20109;-77
2021/03/15 11:18:17;;;;;;;11.57;2.00;;;;;;;10.35;93.21;99806.13;4974188;28;20031;-76
2021/03/15 11:20:56;;;;;;;15.52;2.38;;;;;;;10.04;94.14;99809.31;4968501;28;20046;-76
2021/03/15 11:23:36;;;;;;;16.67;2.95;;;;;;;9.72;96.49;99814.38;4983954;28;20608;-77
2021/03/15 11:26:15;;;;;;;17.67;2.50;;;;;;;9.66;96.55;99810.47;4967589;28;20525;-77
2021/03/15 11:28:52;;;;;;;20.35;2.58;;;;;;;9.63;96.59;99805.06;4968015;28;20039;-77
2021/03/15 11:31:23;;;;;;;16.70;2.20;;;;;;;9.62;96.86;99819.66;4978251;28;20137;-76
2021/03/15 11:33:51;;;;;;;12.82;2.47;;;;;;;9.66;96.91;99825.81;4969027;28;20388;-77
2021/03/15 11:36:28;;;;;;;16.48;2.42;;;;;;;9.67;97.18;99830.84;4969271;28;20031;-77
2021/03/15 11:39:06;;;;;;;15.45;3.00;;;;;;;9.63;97.05;99826.56;4985592;28;20054;-77
2021/03/15 11:41:45;;;;;;;20.05;2.67;;;;;;;9.46;97.30;99819.09;4962516;28;20035;-77
2021/03/15 11:44:12;;;;;;;16.05;2.22;;;;;;;9.55;97.24;99817.66;4969703;28;20384;-77
2021/03/15 11:46:39;;;;;;;13.55;2.20;;;;;;;9.51;95.91;99814.16;4964389;28;20031;-77
2021/03/15 11:49:07;;;;;;;10.10;2.08;;;;;;;9.41;96.13;99809.44;4970301;28;20565;-77